Time;durP1;ratioP1;P1;durP2;ratioP2;P2;SDS_P1;SDS_P2;PMS_P1;PMS_P2;Temp;Humidity;BMP_temperature;BMP_pressure;BME280_temperature;BME280_humidity;BME280_pressure;Samples;Min_cycle;Max_cycle;Signal;HPM_P1;HPM_P2
2022/01/07 00:02:16;;;;;;;;;;;-1.60;99.90;;;;;;5085431;28;19927;-71
2022/01/07 00:04:43;;;;;;;;;;;-1.60;99.90;;;;;;5085202;28;19920;-71
2022/01/07 00:07:10;;;;;;;;;;;-1.60;99.90;;;;;;5085642;28;19920;-70
2022/01/07 00:09:37;;;;;;;;;;;-1.60;99.90;;;;;;5085217;28;19992;-71
2022/01/07 00:12:04;;;;;;;;;;;-1.60;99.90;;;;;;5085354;28;20117;-67
2022/01/07 00:14:30;;;;;;;;;;;-1.60;99.90;;;;;;5084991;28;20124;-71
2022/01/07 00:16:58;;;;;;;;;;;-1.70;99.90;;;;;;5085091;28;19928;-71
2022/01/07 00:19:25;;;;;;;;;;;-1.70;99.90;;;;;;5085254;28;19927;-70
2022/01/07 00:21:51;;;;;;;;;;;-1.70;99.90;;;;;;5084918;28;19927;-70
2022/01/07 00:24:18;;;;;;;;;;;-1.70;99.90;;;;;;5084685;28;19921;-70
2022/01/07 00:26:45;;;;;;;;;;;-1.70;99.90;;;;;;5084990;28;19920;-69
2022/01/07 00:29:11;;;;;;;;;;;-1.80;99.90;;;;;;5084775;28;19927;-69
2022/01/07 00:31:38;;;;;;;;;;;-1.70;99.90;;;;;;5084832;28;19943;-70
2022/01/07 00:34:06;;;;;;;;;;;-1.70;99.90;;;;;;5084642;28;19927;-70
2022/01/07 00:36:32;;;;;;;;;;;-1.70;99.90;;;;;;5084423;28;19935;-70
2022/01/07 00:38:59;;;;;;;;;;;-1.70;99.90;;;;;;5084521;28;19925;-71
2022/01/07 00:41:26;;;;;;;;;;;-1.70;99.90;;;;;;5084698;28;19921;-70
2022/01/07 00:43:52;;;;;;;;;;;-1.70;99.90;;;;;;5084618;28;20117;-70
2022/01/07 00:46:20;;;;;;;;;;;-1.70;99.90;;;;;;5084693;28;19928;-70
2022/01/07 00:48:47;;;;;;;;;;;-1.70;99.90;;;;;;5084564;28;19920;-70
2022/01/07 00:51:15;;;;;;;;;;;-1.80;99.90;;;;;;5084505;28;20207;-70
2022/01/07 00:53:42;;;;;;;;;;;-1.70;99.90;;;;;;5084095;28;20216;-68
2022/01/07 00:56:09;;;;;;;;;;;-1.70;99.90;;;;;;5084533;28;19921;-70
2022/01/07 00:58:35;;;;;;;;;;;-1.70;99.90;;;;;;5084442;28;19928;-70
2022/01/07 01:01:02;;;;;;;;;;;-1.80;99.90;;;;;;5084361;28;19924;-70
2022/01/07 01:03:28;;;;;;;;;;;-1.80;99.90;;;;;;5083989;28;20097;-70
2022/01/07 01:05:58;;;;;;;;;;;-1.80;99.90;;;;;;5083968;28;19920;-70
2022/01/07 01:08:26;;;;;;;;;;;-1.80;99.90;;;;;;5084142;28;19962;-70
2022/01/07 01:10:52;;;;;;;;;;;-1.80;99.90;;;;;;5084002;28;19987;-70
2022/01/07 01:13:19;;;;;;;;;;;-1.80;99.90;;;;;;5083950;28;20212;-70
2022/01/07 01:15:46;;;;;;;;;;;-1.80;99.90;;;;;;5084035;28;19920;-70
2022/01/07 01:18:13;;;;;;;;;;;-1.80;99.90;;;;;;5084099;28;19926;-70
2022/01/07 01:20:40;;;;;;;;;;;-1.80;99.90;;;;;;5084235;28;19987;-70
2022/01/07 01:23:06;;;;;;;;;;;-1.80;99.90;;;;;;5084015;28;19988;-70
2022/01/07 01:25:34;;;;;;;;;;;-1.80;99.90;;;;;;5083592;28;19920;-70
2022/01/07 01:28:01;;;;;;;;;;;-1.80;99.90;;;;;;5083981;28;20111;-70
2022/01/07 01:30:28;;;;;;;;;;;-1.80;99.90;;;;;;5083712;28;19958;-70
2022/01/07 01:32:55;;;;;;;;;;;-1.80;99.90;;;;;;5083951;28;19920;-70
2022/01/07 01:35:22;;;;;;;;;;;-1.80;99.90;;;;;;5083510;28;19920;-70
2022/01/07 01:37:49;;;;;;;;;;;-1.80;99.90;;;;;;5083653;28;19921;-68
2022/01/07 01:40:17;;;;;;;;;;;-1.80;99.90;;;;;;5084003;28;19921;-70
2022/01/07 01:42:46;;;;;;;;;;;-1.90;99.90;;;;;;5083522;28;19926;-70
2022/01/07 01:45:15;;;;;;;;;;;-1.80;99.90;;;;;;5083233;28;19943;-70
2022/01/07 01:47:42;;;;;;;;;;;-1.90;99.90;;;;;;5083781;28;20139;-70
2022/01/07 01:50:09;;;;;;;;;;;-1.90;99.90;;;;;;5083358;28;19942;-71
2022/01/07 01:52:35;;;;;;;;;;;-2.00;99.90;;;;;;5083349;28;19920;-70
2022/01/07 01:55:03;;;;;;;;;;;-1.90;99.90;;;;;;5083285;28;20118;-70
2022/01/07 01:57:31;;;;;;;;;;;-1.90;99.90;;;;;;5083730;28;19926;-70
2022/01/07 02:00:00;;;;;;;;;;;-2.00;99.90;;;;;;5083481;28;19920;-69
2022/01/07 02:02:26;;;;;;;;;;;-2.00;99.90;;;;;;5083628;28;19921;-70
2022/01/07 02:04:53;;;;;;;;;;;-2.00;99.90;;;;;;5083080;28;20207;-70
2022/01/07 02:07:20;;;;;;;;;;;-2.00;99.90;;;;;;5087867;28;19959;-70
2022/01/07 02:09:46;;;;;;;;;;;-2.00;99.90;;;;;;5087430;28;20226;-70
2022/01/07 02:12:13;;;;;;;;;;;-2.00;99.90;;;;;;5087887;28;19920;-69
2022/01/07 02:14:50;;;;;;;;;;;-2.10;99.90;;;;;;5087141;28;19921;-70
2022/01/07 02:17:18;;;;;;;;;;;-2.10;99.90;;;;;;5087430;28;19927;-70
2022/01/07 02:19:46;;;;;;;;;;;-2.10;99.90;;;;;;5087615;28;19920;-70
2022/01/07 02:22:13;;;;;;;;;;;-2.10;99.90;;;;;;5087661;28;19927;-70
2022/01/07 02:24:39;;;;;;;;;;;-2.10;99.90;;;;;;5087004;28;19991;-70
2022/01/07 02:27:06;;;;;;;;;;;-2.10;99.90;;;;;;5087396;28;19920;-70
2022/01/07 02:29:33;;;;;;;;;;;-2.00;99.90;;;;;;5087118;28;19920;-70
2022/01/07 02:31:59;;;;;;;;;;;-2.10;99.90;;;;;;5087420;28;19926;-70
2022/01/07 02:34:26;;;;;;;;;;;-2.00;99.90;;;;;;5087085;28;19943;-70
2022/01/07 02:36:54;;;;;;;;;;;-2.00;99.90;;;;;;5087050;28;20143;-69
2022/01/07 02:39:20;;;;;;;;;;;-2.00;99.90;;;;;;5087138;28;19936;-69
2022/01/07 02:41:47;;;;;;;;;;;-2.00;99.90;;;;;;5086870;28;19921;-70
2022/01/07 02:44:14;;;;;;;;;;;-2.00;99.90;;;;;;5086856;28;19920;-69
2022/01/07 02:46:41;;;;;;;;;;;-2.10;99.90;;;;;;5086868;28;19921;-70
2022/01/07 02:49:08;;;;;;;;;;;-2.10;99.90;;;;;;5086927;28;19920;-70
2022/01/07 02:51:35;;;;;;;;;;;-2.10;99.90;;;;;;5086971;28;19928;-70
2022/01/07 02:54:03;;;;;;;;;;;-2.10;99.90;;;;;;5086401;28;19920;-70
2022/01/07 02:56:29;;;;;;;;;;;-2.00;99.90;;;;;;5086800;28;20111;-70
2022/01/07 02:58:56;;;;;;;;;;;-2.10;99.90;;;;;;5086622;28;19922;-70
2022/01/07 03:01:22;;;;;;;;;;;-2.10;99.90;;;;;;5086502;28;20211;-70
2022/01/07 03:03:49;;;;;;;;;;;-2.10;99.90;;;;;;5086150;28;19921;-70
2022/01/07 03:06:16;;;;;;;;;;;-2.10;99.90;;;;;;5086378;28;19920;-70
2022/01/07 03:08:45;;;;;;;;;;;-2.10;99.90;;;;;;5086489;28;19921;-70
2022/01/07 03:11:13;;;;;;;;;;;-2.10;99.90;;;;;;5086333;28;19927;-68
2022/01/07 03:13:39;;;;;;;;;;;-2.10;99.90;;;;;;5085985;28;19921;-70
2022/01/07 03:16:06;;;;;;;;;;;-2.10;99.90;;;;;;5086409;28;19920;-70
2022/01/07 03:18:33;;;;;;;;;;;-2.10;99.90;;;;;;5086509;28;20115;-70
2022/01/07 03:21:00;;;;;;;;;;;-2.10;99.90;;;;;;5086490;28;20279;-70
2022/01/07 03:23:27;;;;;;;;;;;-2.10;99.90;;;;;;5086013;28;19947;-70
2022/01/07 03:25:54;;;;;;;;;;;-2.20;99.90;;;;;;5085836;28;20199;-68
2022/01/07 03:28:22;;;;;;;;;;;-2.20;99.90;;;;;;5085676;28;19920;-70
2022/01/07 03:30:49;;;;;;;;;;;-2.20;99.90;;;;;;5086117;28;20121;-70
2022/01/07 03:33:16;;;;;;;;;;;-2.20;99.90;;;;;;5086223;28;19920;-70
2022/01/07 03:35:42;;;;;;;;;;;-2.20;99.90;;;;;;5085477;28;20124;-70
2022/01/07 03:38:09;;;;;;;;;;;-2.20;99.90;;;;;;5085612;28;19920;-70
2022/01/07 03:40:36;;;;;;;;;;;-2.20;99.90;;;;;;5085914;28;19927;-70
2022/01/07 03:43:03;;;;;;;;;;;-2.20;99.90;;;;;;5086056;28;19920;-69
2022/01/07 03:45:31;;;;;;;;;;;-2.20;99.90;;;;;;5085394;28;20143;-70
2022/01/07 03:47:57;;;;;;;;;;;-2.20;99.90;;;;;;5085608;28;19928;-70
2022/01/07 03:50:25;;;;;;;;;;;-2.20;99.90;;;;;;5085709;28;19927;-69
2022/01/07 03:52:52;;;;;;;;;;;-2.20;99.90;;;;;;5085560;28;19932;-70
2022/01/07 03:55:21;;;;;;;;;;;-2.20;99.90;;;;;;5085154;28;19920;-70
2022/01/07 03:57:47;;;;;;;;;;;-2.20;99.90;;;;;;5085708;28;19983;-70
2022/01/07 04:00:16;;;;;;;;;;;-2.10;99.90;;;;;;5085737;28;19927;-70
2022/01/07 04:02:44;;;;;;;;;;;-2.20;99.90;;;;;;5085591;28;19956;-70
2022/01/07 04:05:11;;;;;;;;;;;-2.20;99.90;;;;;;5085378;28;20116;-69
2022/01/07 04:07:38;;;;;;;;;;;-2.10;99.90;;;;;;5085554;28;19921;-70
2022/01/07 04:10:05;;;;;;;;;;;-2.20;99.90;;;;;;5085435;28;19943;-70
2022/01/07 04:12:31;;;;;;;;;;;-2.20;99.90;;;;;;5085471;28;19921;-69
2022/01/07 04:15:07;;;;;;;;;;;-2.20;99.90;;;;;;5084789;28;20216;-70
2022/01/07 04:17:34;;;;;;;;;;;-2.20;99.90;;;;;;5085217;28;19920;-70
2022/01/07 04:20:03;;;;;;;;;;;-2.20;99.90;;;;;;5084939;28;19926;-70
2022/01/07 04:22:29;;;;;;;;;;;-2.20;99.90;;;;;;5085239;28;19952;-70
2022/01/07 04:24:56;;;;;;;;;;;-2.20;99.90;;;;;;5084542;28;19924;-70
2022/01/07 04:27:23;;;;;;;;;;;-2.20;99.90;;;;;;5085207;28;19920;-70
2022/01/07 04:29:49;;;;;;;;;;;-2.20;99.90;;;;;;5084530;28;19970;-70
2022/01/07 04:32:16;;;;;;;;;;;-2.20;99.90;;;;;;5084729;28;19921;-69
2022/01/07 04:34:43;;;;;;;;;;;-2.20;99.90;;;;;;5084702;28;19927;-70
2022/01/07 04:37:10;;;;;;;;;;;-2.30;99.90;;;;;;5084942;28;19920;-70
2022/01/07 04:39:37;;;;;;;;;;;-2.30;99.90;;;;;;5084911;28;19921;-70
2022/01/07 04:42:04;;;;;;;;;;;-2.30;99.90;;;;;;5084696;28;19955;-70
2022/01/07 04:44:31;;;;;;;;;;;-2.20;99.90;;;;;;5084552;28;19921;-70
2022/01/07 04:46:57;;;;;;;;;;;-2.00;99.90;;;;;;5084478;28;19921;-70
2022/01/07 04:49:24;;;;;;;;;;;-2.00;99.90;;;;;;5084508;28;19927;-70
2022/01/07 04:51:50;;;;;;;;;;;-2.00;99.90;;;;;;5084343;28;19928;-69
2022/01/07 04:54:18;;;;;;;;;;;-2.10;99.90;;;;;;5084406;28;20143;-69
2022/01/07 04:56:45;;;;;;;;;;;-2.10;99.90;;;;;;5130119;22;19919;-94
2022/01/07 04:59:12;;;;;;;;;;;-1.70;99.90;;;;;;5119058;28;19915;-94
2022/01/07 05:01:38;;;;;;;;;;;-1.50;99.90;;;;;;5119452;28;20099;-95
2022/01/07 05:04:05;;;;;;;;;;;-2.00;99.90;;;;;;5119219;28;19919;-93
2022/01/07 05:06:45;;;;;;;;;;;-1.40;99.90;;;;;;5117503;28;19912;-93
2022/01/07 05:09:12;;;;;;;;;;;-2.00;99.90;;;;;;5115149;28;19916;-93
2022/01/07 05:11:40;;;;;;;;;;;-2.00;99.90;;;;;;5118998;28;19938;-93
2022/01/07 05:14:07;;;;;;;;;;;-2.10;99.90;;;;;;5118849;28;19947;-93
2022/01/07 05:16:34;;;;;;;;;;;-1.30;99.90;;;;;;5118930;28;19979;-94
2022/01/07 05:19:01;;;;;;;;;;;-1.70;99.90;;;;;;5113654;28;19933;-93
2022/01/07 05:21:28;;;;;;;;;;;-1.40;99.90;;;;;;5098494;28;19975;-93
2022/01/07 05:23:54;;;;;;;;;;;-1.90;99.90;;;;;;5098418;28;19912;-93
2022/01/07 05:26:21;;;;;;;;;;;-1.40;99.90;;;;;;5098519;28;19939;-93
2022/01/07 05:28:50;;;;;;;;;;;-2.00;99.90;;;;;;5113434;28;19908;-93
2022/01/07 05:31:17;;;;;;;;;;;-1.90;99.90;;;;;;5118945;28;19914;-93
2022/01/07 05:33:43;;;;;;;;;;;-1.60;99.90;;;;;;5118751;28;19912;-93
2022/01/07 05:36:10;;;;;;;;;;;-1.80;99.90;;;;;;5118746;28;19947;-93
2022/01/07 05:38:37;;;;;;;;;;;-1.80;99.90;;;;;;5117292;28;19931;-93
2022/01/07 05:41:04;;;;;;;;;;;-1.70;99.90;;;;;;5117814;28;19980;-93
2022/01/07 05:43:30;;;;;;;;;;;-1.60;99.90;;;;;;5118715;28;19940;-93
2022/01/07 05:45:59;;;;;;;;;;;-1.80;99.90;;;;;;5118675;28;19938;-93
2022/01/07 05:48:26;;;;;;;;;;;-1.80;99.90;;;;;;5104949;28;19968;-93
2022/01/07 05:50:53;;;;;;;;;;;-1.00;99.90;;;;;;5098421;28;19936;-93
2022/01/07 05:53:19;;;;;;;;;;;-1.70;99.90;;;;;;5098287;28;19909;-92
2022/01/07 05:55:46;;;;;;;;;;;-1.60;99.90;;;;;;5097878;28;19979;-93
2022/01/07 05:58:13;;;;;;;;;;;-1.60;99.90;;;;;;5099166;28;19920;-93
2022/01/07 06:00:40;;;;;;;;;;;-1.70;99.90;;;;;;5111212;28;19914;-93
2022/01/07 06:03:08;;;;;;;;;;;-1.20;99.90;;;;;;5118401;28;19912;-92
2022/01/07 06:05:35;;;;;;;;;;;-1.40;99.90;;;;;;5118360;28;19912;-92
2022/01/07 06:08:02;;;;;;;;;;;-1.70;99.90;;;;;;5107895;28;19980;-92
2022/01/07 06:10:29;;;;;;;;;;;-1.70;99.90;;;;;;5098209;28;19939;-92
2022/01/07 06:12:56;;;;;;;;;;;-1.70;99.90;;;;;;5098145;28;19939;-92
2022/01/07 06:15:23;;;;;;;;;;;-1.70;99.90;;;;;;5097862;28;19993;-94
2022/01/07 06:17:49;;;;;;;;;;;-1.60;99.90;;;;;;5101417;28;19935;-93
2022/01/07 06:20:18;;;;;;;;;;;-1.70;99.90;;;;;;5098178;28;19915;-93
2022/01/07 06:22:45;;;;;;;;;;;-1.60;99.90;;;;;;5098260;28;19920;-93
2022/01/07 06:25:12;;;;;;;;;;;-1.60;99.90;;;;;;5097919;28;19908;-93
2022/01/07 06:27:39;;;;;;;;;;;-1.70;99.90;;;;;;5098122;28;19912;-93
2022/01/07 06:30:07;;;;;;;;;;;-1.60;99.90;;;;;;5097919;28;19939;-93
2022/01/07 06:32:33;;;;;;;;;;;-1.60;99.90;;;;;;5098014;28;19968;-93
2022/01/07 06:35:00;;;;;;;;;;;-1.50;99.90;;;;;;5097881;28;19940;-93
2022/01/07 06:37:28;;;;;;;;;;;-1.60;99.90;;;;;;5103654;28;19980;-92
2022/01/07 06:39:55;;;;;;;;;;;-1.50;99.90;;;;;;5117680;28;19999;-93
2022/01/07 06:42:22;;;;;;;;;;;-1.60;99.90;;;;;;5117703;28;19932;-92
2022/01/07 06:44:49;;;;;;;;;;;-1.50;99.90;;;;;;5117353;28;19927;-91
2022/01/07 06:47:16;;;;;;;;;;;-0.70;99.90;;;;;;5112824;28;19931;-92
2022/01/07 06:49:42;;;;;;;;;;;-1.60;99.90;;;;;;5118047;28;19908;-92
2022/01/07 06:52:09;;;;;;;;;;;-1.60;99.90;;;;;;5115191;28;19920;-92
2022/01/07 06:54:37;;;;;;;;;;;-1.10;99.90;;;;;;5092232;28;19980;-92
2022/01/07 06:57:04;;;;;;;;;;;-1.40;99.90;;;;;;5091899;28;19921;-93
2022/01/07 06:59:31;;;;;;;;;;;-1.60;99.90;;;;;;5101309;28;19923;-93
2022/01/07 07:01:58;;;;;;;;;;;-1.60;99.90;;;;;;5098336;28;19943;-93
2022/01/07 07:04:24;;;;;;;;;;;-1.40;99.90;;;;;;5087626;28;19920;-93
2022/01/07 07:06:51;;;;;;;;;;;-1.60;99.90;;;;;;5100752;28;19927;-91
2022/01/07 07:09:19;;;;;;;;;;;-1.50;99.90;;;;;;5098080;28;19927;-92
2022/01/07 07:11:50;;;;;;;;;;;-1.50;99.90;;;;;;5097488;28;19976;-91
2022/01/07 07:14:17;;;;;;;;;;;-1.60;99.90;;;;;;5096734;28;19980;-89
2022/01/07 07:16:44;;;;;;;;;;;-1.60;99.90;;;;;;5095253;28;19984;-91
2022/01/07 07:19:11;;;;;;;;;;;-1.70;99.90;;;;;;5101757;28;19944;-90
2022/01/07 07:21:38;;;;;;;;;;;-1.70;99.90;;;;;;5096235;28;19921;-91
2022/01/07 07:24:05;;;;;;;;;;;-1.80;99.90;;;;;;5096232;28;19987;-91
2022/01/07 07:26:32;;;;;;;;;;;-1.80;99.90;;;;;;5097365;28;19927;-91
2022/01/07 07:29:00;;;;;;;;;;;-1.80;99.90;;;;;;5095574;28;19921;-91
2022/01/07 07:31:27;;;;;;;;;;;-1.80;99.90;;;;;;5098157;28;19927;-92
2022/01/07 07:34:18;;;;;;;;;;;-1.70;99.90;;;;;;5095793;28;19980;-92
2022/01/07 07:36:45;;;;;;;;;;;-1.70;99.90;;;;;;5096811;28;19931;-91
2022/01/07 07:39:13;;;;;;;;;;;-1.70;99.90;;;;;;5098230;28;19942;-92
2022/01/07 07:41:41;;;;;;;;;;;-1.70;99.90;;;;;;5095201;28;19983;-90
2022/01/07 07:44:09;;;;;;;;;;;-1.70;99.90;;;;;;5093436;28;19950;-90
2022/01/07 07:46:37;;;;;;;;;;;-1.70;99.90;;;;;;5092356;28;19909;-92
2022/01/07 07:49:04;;;;;;;;;;;-1.60;99.90;;;;;;5078458;28;19920;-92
2022/01/07 07:51:31;;;;;;;;;;;-1.60;99.90;;;;;;5093750;28;19920;-91
2022/01/07 07:53:58;;;;;;;;;;;-1.50;99.90;;;;;;5098460;28;19920;-92
2022/01/07 07:56:25;;;;;;;;;;;-1.40;99.90;;;;;;5097066;28;19976;-89
2022/01/07 07:58:52;;;;;;;;;;;-1.40;99.90;;;;;;5089050;28;19951;-91
2022/01/07 08:01:21;;;;;;;;;;;-1.40;99.90;;;;;;5086837;28;19920;-91
2022/01/07 08:03:48;;;;;;;;;;;-1.40;99.90;;;;;;5093095;28;19926;-91
2022/01/07 08:06:14;;;;;;;;;;;-1.30;99.90;;;;;;5094429;28;19984;-91
2022/01/07 08:08:41;;;;;;;;;;;-1.30;99.90;;;;;;5084709;28;19927;-92
2022/01/07 08:11:10;;;;;;;;;;;-1.30;99.90;;;;;;5091483;28;19951;-91
2022/01/07 08:16:19;;;;;;;;;;;-1.20;99.90;;;;;;5091414;28;19927;-93
2022/01/07 08:18:49;;;;;;;;;;;-1.20;99.90;;;;;;5088809;28;19943;-92
2022/01/07 08:21:15;;;;;;;;;;;-1.30;99.90;;;;;;5076235;28;19921;-91
2022/01/07 08:23:43;;;;;;;;;;;-0.60;99.90;;;;;;5084119;28;19980;-92
2022/01/07 08:26:11;;;;;;;;;;;-1.30;99.90;;;;;;5095390;28;19980;-90
2022/01/07 08:28:42;;;;;;;;;;;-1.20;99.90;;;;;;5093623;28;19993;-90
2022/01/07 08:31:26;;;;;;;;;;;-0.90;99.90;;;;;;5085679;28;19920;-89
2022/01/07 08:36:39;;;;;;;;;;;-1.30;99.90;;;;;;5093661;28;19944;-91
2022/01/07 08:39:07;;;;;;;;;;;-1.30;99.90;;;;;;5094849;28;20282;-92
2022/01/07 08:41:36;;;;;;;;;;;-1.30;99.90;;;;;;5086831;28;20127;-91
2022/01/07 08:44:04;;;;;;;;;;;-1.20;99.90;;;;;;5082251;28;19987;-90
2022/01/07 08:46:31;;;;;;;;;;;-1.10;99.90;;;;;;5084758;28;19927;-92
2022/01/07 08:48:59;;;;;;;;;;;-1.10;99.90;;;;;;5077312;28;19980;-92
2022/01/07 08:51:27;;;;;;;;;;;-0.90;99.90;;;;;;5078345;28;19920;-91
2022/01/07 08:53:54;;;;;;;;;;;-1.00;99.90;;;;;;5095772;28;19912;-93
2022/01/07 08:56:23;;;;;;;;;;;-0.40;99.90;;;;;;5083280;28;19939;-93
2022/01/07 08:58:54;;;;;;;;;;;-0.90;99.90;;;;;;5079816;28;19908;-93
2022/01/07 09:01:20;;;;;;;;;;;-0.60;99.90;;;;;;5089152;28;19909;-92
2022/01/07 09:03:54;;;;;;;;;;;0.10;99.90;;;;;;5086823;28;19928;-94
2022/01/07 09:06:22;;;;;;;;;;;-0.70;99.90;;;;;;5084549;28;19942;-93
2022/01/07 09:08:49;;;;;;;;;;;-0.80;99.90;;;;;;5097457;28;19940;-93
2022/01/07 09:13:48;;;;;;;;;;;-0.70;99.90;;;;;;5100537;28;19920;-71
2022/01/07 09:16:15;;;;;;;;;;;-0.60;99.90;;;;;;5100420;28;19948;-71
2022/01/07 09:18:41;;;;;;;;;;;-0.60;99.90;;;;;;5089170;28;19926;-72
2022/01/07 09:21:08;;;;;;;;;;;-0.60;99.90;;;;;;5109290;28;19934;-72
2022/01/07 09:23:39;;;;;;;;;;;-0.60;99.90;;;;;;5124758;28;19919;-71
2022/01/07 09:26:05;;;;;;;;;;;-0.50;99.90;;;;;;5113840;28;19921;-72
2022/01/07 09:28:32;;;;;;;;;;;-0.50;99.90;;;;;;5095174;28;19924;-71
2022/01/07 09:30:59;;;;;;;;;;;-0.50;99.90;;;;;;5089323;28;19920;-71
2022/01/07 09:33:25;;;;;;;;;;;-0.50;99.90;;;;;;5110074;28;20234;-71
2022/01/07 09:35:52;;;;;;;;;;;-0.50;99.90;;;;;;5116100;28;19920;-71
2022/01/07 09:38:18;;;;;;;;;;;-0.40;99.90;;;;;;5101926;28;20256;-72
2022/01/07 09:40:46;;;;;;;;;;;-0.40;99.90;;;;;;5113182;28;20080;-71
2022/01/07 09:43:14;;;;;;;;;;;-0.40;99.90;;;;;;5109919;28;19947;-71
2022/01/07 09:45:41;;;;;;;;;;;-0.40;99.90;;;;;;5102216;28;19927;-71
2022/01/07 09:48:08;;;;;;;;;;;-0.30;99.90;;;;;;5107825;28;19919;-69
2022/01/07 09:50:35;;;;;;;;;;;-0.30;99.90;;;;;;5112402;28;19920;-70
2022/01/07 09:53:04;;;;;;;;;;;-0.30;99.90;;;;;;5101373;28;20211;-72
2022/01/07 09:55:30;;;;;;;;;;;-0.30;99.90;;;;;;5097675;28;19951;-72
2022/01/07 09:57:58;;;;;;;;;;;-0.20;99.90;;;;;;5091466;28;19950;-72
2022/01/07 10:00:25;;;;;;;;;;;-0.20;99.90;;;;;;5100616;28;19931;-71
2022/01/07 10:02:58;;;;;;;;;;;-0.20;99.90;;;;;;5109016;28;19927;-71
2022/01/07 10:05:25;;;;;;;;;;;-0.20;99.90;;;;;;5099745;28;19943;-71
2022/01/07 10:07:52;;;;;;;;;;;-0.20;99.90;;;;;;5105451;28;20226;-71
2022/01/07 10:10:19;;;;;;;;;;;-0.20;99.90;;;;;;5116463;28;19987;-71
2022/01/07 10:12:50;;;;;;;;;;;-0.20;99.90;;;;;;5106276;28;19945;-71
2022/01/07 10:15:18;;;;;;;;;;;-0.20;99.90;;;;;;5094080;28;19926;-72
2022/01/07 10:17:54;;;;;;;;;;;-0.10;99.90;;;;;;5089207;28;19920;-72
2022/01/07 10:20:23;;;;;;;;;;;-0.10;99.90;;;;;;5100949;28;19981;-74
2022/01/07 10:22:51;;;;;;;;;;;0.00;99.90;;;;;;5082042;28;20242;-72
2022/01/07 10:25:22;;;;;;;;;;;0.00;99.90;;;;;;5099034;28;19920;-70
2022/01/07 10:27:48;;;;;;;;;;;0.10;99.90;;;;;;5119383;28;19920;-73
2022/01/07 10:30:17;;;;;;;;;;;0.20;99.90;;;;;;5097676;28;19991;-72
2022/01/07 10:32:47;;;;;;;;;;;0.30;99.90;;;;;;5114211;28;19920;-72
2022/01/07 10:35:18;;;;;;;;;;;0.40;99.90;;;;;;5108222;28;20380;-72
2022/01/07 10:37:54;;;;;;;;;;;0.60;99.90;;;;;;5096063;28;20230;-72
2022/01/07 10:40:27;;;;;;;;;;;0.70;99.90;;;;;;5092341;28;19979;-72
2022/01/07 10:43:19;;;;;;;;;;;0.90;99.90;;;;;;5117829;28;19926;-73
2022/01/07 10:45:49;;;;;;;;;;;1.00;99.90;;;;;;5097221;28;19965;-73
2022/01/07 10:48:20;;;;;;;;;;;1.10;99.90;;;;;;5111756;28;20111;-72
2022/01/07 10:50:49;;;;;;;;;;;1.10;99.90;;;;;;5098705;28;19928;-74
2022/01/07 10:53:18;;;;;;;;;;;1.10;99.90;;;;;;5101218;28;19920;-72
2022/01/07 10:56:07;;;;;;;;;;;1.00;99.90;;;;;;5102617;28;19938;-72
2022/01/07 10:58:55;;;;;;;;;;;0.90;99.90;;;;;;5098213;28;20230;-71
2022/01/07 11:01:29;;;;;;;;;;;0.80;99.90;;;;;;5096325;28;20003;-73
2022/01/07 11:03:59;;;;;;;;;;;0.80;99.90;;;;;;5093855;28;20111;-73
2022/01/07 11:06:27;;;;;;;;;;;0.90;99.90;;;;;;5091865;28;19943;-72
2022/01/07 11:08:58;;;;;;;;;;;0.90;99.90;;;;;;5100820;28;19987;-72
2022/01/07 11:11:25;;;;;;;;;;;0.80;99.90;;;;;;5100593;28;19935;-72
2022/01/07 11:13:52;;;;;;;;;;;0.70;99.90;;;;;;5098964;28;19994;-71
2022/01/07 11:16:18;;;;;;;;;;;0.60;99.90;;;;;;5099969;28;19920;-71
2022/01/07 11:18:46;;;;;;;;;;;0.60;99.90;;;;;;5098689;28;19920;-71
2022/01/07 11:21:17;;;;;;;;;;;0.50;99.90;;;;;;5114778;28;19928;-72
2022/01/07 11:23:43;;;;;;;;;;;0.50;99.90;;;;;;5128405;28;19926;-72
2022/01/07 11:26:11;;;;;;;;;;;0.50;99.90;;;;;;5112681;28;20464;-72
2022/01/07 11:28:38;;;;;;;;;;;0.50;99.90;;;;;;5106302;28;19928;-73
2022/01/07 11:31:06;;;;;;;;;;;0.50;99.90;;;;;;5096723;28;20085;-72
2022/01/07 11:33:33;;;;;;;;;;;0.50;99.90;;;;;;5106244;28;19920;-73
2022/01/07 11:35:59;;;;;;;;;;;0.50;99.90;;;;;;5105903;28;19924;-72
2022/01/07 11:38:34;;;;;;;;;;;0.60;99.90;;;;;;5124224;28;19927;-75
2022/01/07 11:41:03;;;;;;;;;;;0.60;99.90;;;;;;5106591;28;19920;-73
2022/01/07 11:43:32;;;;;;;;;;;0.50;99.90;;;;;;5107405;28;19920;-72
2022/01/07 11:48:41;;;;;;;;;;;0.40;99.90;;;;;;5100998;28;20204;-71
2022/01/07 11:51:13;;;;;;;;;;;0.40;99.90;;;;;;5122714;28;19919;-72
2022/01/07 11:54:02;;;;;;;;;;;0.50;99.90;;;;;;5108638;28;20364;-74
2022/01/07 11:56:31;;;;;;;;;;;0.50;99.90;;;;;;5093335;28;19920;-74
2022/01/07 11:59:10;;;;;;;;;;;0.50;99.90;;;;;;5113448;28;19920;-71
2022/01/07 12:01:41;;;;;;;;;;;0.60;99.90;;;;;;5108483;28;19920;-72
2022/01/07 12:04:32;;;;;;;;;;;0.60;99.90;;;;;;5105170;28;19985;-71
2022/01/07 12:07:02;;;;;;;;;;;0.60;99.90;;;;;;5090071;28;19927;-72
2022/01/07 12:09:30;;;;;;;;;;;0.60;99.90;;;;;;5099115;28;19920;-73
2022/01/07 12:12:00;;;;;;;;;;;0.60;99.90;;;;;;5121165;28;19920;-71
2022/01/07 12:14:34;;;;;;;;;;;0.70;99.90;;;;;;5111672;28;19924;-70
2022/01/07 12:17:04;;;;;;;;;;;0.70;99.90;;;;;;5095810;28;19979;-71
2022/01/07 12:19:52;;;;;;;;;;;0.70;99.90;;;;;;5096650;28;19943;-72
2022/01/07 12:22:20;;;;;;;;;;;0.70;99.90;;;;;;5105724;28;20145;-75
2022/01/07 12:24:48;;;;;;;;;;;0.60;99.90;;;;;;5100498;28;19920;-73
2022/01/07 12:27:19;;;;;;;;;;;0.50;99.90;;;;;;5094564;28;19927;-70
2022/01/07 12:29:47;;;;;;;;;;;0.50;99.90;;;;;;5115160;28;19927;-69
2022/01/07 12:32:16;;;;;;;;;;;0.50;99.90;;;;;;5099647;28;20088;-73
2022/01/07 12:34:43;;;;;;;;;;;0.40;99.90;;;;;;5099137;28;19920;-73
2022/01/07 12:37:11;;;;;;;;;;;0.40;99.90;;;;;;5085495;28;20269;-69
2022/01/07 12:39:38;;;;;;;;;;;0.40;99.90;;;;;;5093561;28;19921;-71
2022/01/07 12:42:06;;;;;;;;;;;0.40;99.90;;;;;;5102478;28;19990;-72
2022/01/07 12:44:35;;;;;;;;;;;0.30;99.90;;;;;;5105040;28;19926;-73
2022/01/07 12:47:02;;;;;;;;;;;0.40;99.90;;;;;;5095110;28;19920;-71
2022/01/07 12:49:32;;;;;;;;;;;0.30;99.90;;;;;;5097949;28;19920;-72
2022/01/07 12:52:00;;;;;;;;;;;0.30;99.90;;;;;;5084859;28;19924;-71
2022/01/07 12:54:27;;;;;;;;;;;0.30;99.90;;;;;;5084383;28;19920;-71
2022/01/07 12:56:53;;;;;;;;;;;0.30;99.90;;;;;;5084674;28;19921;-73
2022/01/07 12:59:21;;;;;;;;;;;0.30;99.90;;;;;;5092625;28;19924;-73
2022/01/07 13:01:49;;;;;;;;;;;0.40;99.90;;;;;;5099846;28;19966;-71
2022/01/07 13:04:17;;;;;;;;;;;0.50;99.90;;;;;;5103959;28;19920;-70
2022/01/07 13:06:45;;;;;;;;;;;0.50;99.90;;;;;;5123124;28;20141;-73
2022/01/07 13:09:12;;;;;;;;;;;0.60;99.90;;;;;;5119816;28;20432;-71
2022/01/07 13:11:39;;;;;;;;;;;0.70;99.90;;;;;;5083957;28;19921;-74
2022/01/07 13:14:09;;;;;;;;;;;0.70;99.90;;;;;;5096792;28;20106;-71
2022/01/07 13:16:36;;;;;;;;;;;0.70;99.90;;;;;;5097716;28;19928;-71
2022/01/07 13:19:06;;;;;;;;;;;0.70;99.90;;;;;;5104222;28;19927;-71
2022/01/07 13:21:33;;;;;;;;;;;0.70;99.90;;;;;;5104394;28;19927;-73
2022/01/07 13:24:01;;;;;;;;;;;0.60;99.90;;;;;;5104846;28;19924;-73
2022/01/07 13:26:29;;;;;;;;;;;0.60;99.90;;;;;;5086901;28;19958;-73
2022/01/07 13:29:01;;;;;;;;;;;0.60;99.90;;;;;;5083284;28;20728;-71
2022/01/07 13:31:31;;;;;;;;;;;0.60;99.90;;;;;;5083756;28;19980;-71
2022/01/07 13:33:58;;;;;;;;;;;0.60;99.90;;;;;;5088691;28;19920;-72
2022/01/07 13:36:34;;;;;;;;;;;0.50;99.90;;;;;;5084046;28;19928;-71
2022/01/07 13:39:01;;;;;;;;;;;0.50;99.90;;;;;;5083898;28;19920;-72
2022/01/07 13:41:27;;;;;;;;;;;0.50;99.90;;;;;;5083353;28;19920;-70
2022/01/07 13:44:02;;;;;;;;;;;0.60;99.90;;;;;;5091395;28;19927;-71
2022/01/07 13:46:28;;;;;;;;;;;0.60;99.90;;;;;;5124416;28;19955;-70
2022/01/07 13:48:56;;;;;;;;;;;0.60;99.90;;;;;;5124469;28;19926;-71
2022/01/07 13:51:23;;;;;;;;;;;0.60;99.90;;;;;;5124573;28;19927;-70
2022/01/07 13:54:10;;;;;;;;;;;0.60;99.90;;;;;;5084524;28;20119;-77
2022/01/07 13:56:38;;;;;;;;;;;0.70;99.90;;;;;;5085101;28;19979;-72
2022/01/07 13:59:07;;;;;;;;;;;0.60;99.90;;;;;;5092232;28;20207;-72
2022/01/07 14:01:34;;;;;;;;;;;0.60;99.90;;;;;;5096936;28;19923;-72
2022/01/07 14:04:00;;;;;;;;;;;0.60;99.90;;;;;;5098886;28;19991;-71
2022/01/07 14:06:27;;;;;;;;;;;0.60;99.90;;;;;;5113854;28;19919;-70
2022/01/07 14:09:15;;;;;;;;;;;0.60;99.90;;;;;;5099733;28;20407;-71
2022/01/07 14:11:42;;;;;;;;;;;0.60;99.90;;;;;;5083445;28;19995;-71
2022/01/07 14:14:15;;;;;;;;;;;0.60;99.90;;;;;;5095947;28;19920;-70
2022/01/07 14:16:45;;;;;;;;;;;0.60;99.90;;;;;;5103498;28;19927;-69
2022/01/07 14:19:13;;;;;;;;;;;0.60;99.90;;;;;;5100211;28;19920;-69
2022/01/07 14:21:40;;;;;;;;;;;0.70;99.90;;;;;;5103961;28;19987;-71
2022/01/07 14:24:07;;;;;;;;;;;0.60;99.90;;;;;;5093191;28;19927;-71
2022/01/07 14:26:44;;;;;;;;;;;0.60;99.90;;;;;;5099829;28;19920;-70
2022/01/07 14:29:10;;;;;;;;;;;0.70;99.90;;;;;;5100107;28;19920;-72
2022/01/07 14:31:37;;;;;;;;;;;0.70;99.90;;;;;;5083236;28;19927;-74
2022/01/07 14:34:03;;;;;;;;;;;0.70;99.90;;;;;;5083532;28;19927;-74
2022/01/07 14:36:30;;;;;;;;;;;0.60;99.90;;;;;;5083357;28;19921;-70
2022/01/07 14:38:57;;;;;;;;;;;0.60;99.90;;;;;;5083627;28;19920;-73